Time;durP1;ratioP1;P1;durP2;ratioP2;P2;SDS_P1;SDS_P2;PMS_P1;PMS_P2;Temp;Humidity;BMP_temperature;BMP_pressure;BME280_temperature;BME280_humidity;BME280_pressure;Samples;Min_cycle;Max_cycle;Signal;HPM_P1;HPM_P2
2022/09/25 00:01:50;;;;;;;2.75;2.55;;;;;;;8.66;97.28;101678.19;5015623;28;20135;-87
2022/09/25 00:04:17;;;;;;;4.50;3.30;;;;;;;8.65;97.56;101679.34;5014858;28;20553;-88
2022/09/25 00:06:43;;;;;;;3.17;2.63;;;;;;;8.56;96.88;101683.66;5032544;28;20145;-87
2022/09/25 00:09:13;;;;;;;2.40;2.30;;;;;;;8.55;97.20;101680.25;5015015;28;20080;-88
2022/09/25 00:11:39;;;;;;;2.92;2.63;;;;;;;8.58;97.42;101679.47;5014443;28;20056;-87
2022/09/25 00:14:06;;;;;;;2.95;2.67;;;;;;;8.55;97.83;101687.47;5015363;28;20125;-88
2022/09/25 00:16:32;;;;;;;2.92;2.47;;;;;;;8.57;98.30;101690.47;5014599;28;20054;-87
2022/09/25 00:21:51;;;;;;;3.97;2.50;;;;;;;8.54;98.20;101696.59;5033118;28;20081;-87
2022/09/25 00:24:18;;;;;;;5.38;2.40;;;;;;;8.52;98.13;101690.91;5031943;28;20050;-87
2022/09/25 00:26:45;;;;;;;9.55;2.97;;;;;;;8.50;98.40;101693.22;5032736;28;20053;-87
2022/09/25 00:29:17;;;;;;;3.67;2.60;;;;;;;8.47;97.96;101692.13;4998496;28;20112;-87
2022/09/25 00:31:43;;;;;;;4.32;2.25;;;;;;;8.47;98.09;101694.03;5031257;28;20130;-88
2022/09/25 00:34:10;;;;;;;2.47;2.30;;;;;;;8.44;97.53;101702.78;5014627;28;20046;-87
2022/09/25 00:36:37;;;;;;;4.47;2.22;;;;;;;8.42;98.29;101699.78;5014598;28;20523;-87
2022/09/25 00:39:04;;;;;;;5.75;3.88;;;;;;;8.41;98.27;101698.28;5032034;28;20080;-87
2022/09/25 00:41:30;;;;;;;4.68;2.60;;;;;;;8.41;98.75;101695.63;5014788;28;20042;-87
2022/09/25 00:43:59;;;;;;;4.10;2.30;;;;;;;8.39;99.56;101690.00;5032892;28;20065;-88
2022/09/25 00:46:40;;;;;;;2.65;2.28;;;;;;;8.41;99.40;101693.72;4998315;28;20137;-87
2022/09/25 00:49:13;;;;;;;10.02;2.35;;;;;;;8.42;99.60;101691.81;5015134;28;20096;-88
2022/09/25 00:52:05;;;;;;;2.45;2.25;;;;;;;8.41;99.85;101703.59;5014998;28;20100;-87
2022/09/25 00:54:37;;;;;;;3.10;2.15;;;;;;;8.45;100.00;101709.59;5008304;28;20141;-87
2022/09/25 00:57:09;;;;;;;6.15;2.10;;;;;;;8.44;100.00;101703.53;5015265;28;20046;-88
2022/09/25 00:59:37;;;;;;;;;;;;;;;8.48;100.00;101693.63;5015234;28;20120;-87
2022/09/25 01:02:06;;;;;;;7.43;2.42;;;;;;;8.56;100.00;101696.94;5014767;28;20011;-87
2022/09/25 01:04:36;;;;;;;3.45;2.33;;;;;;;8.56;100.00;101695.03;5013777;28;20046;-87
2022/09/25 01:07:03;;;;;;;8.35;2.28;;;;;;;8.54;100.00;101691.28;5032106;28;20330;-87
2022/09/25 01:09:29;;;;;;;4.88;2.00;;;;;;;8.52;100.00;101690.91;5013556;28;20053;-87
2022/09/25 01:11:56;;;;;;;6.03;2.65;;;;;;;8.49;100.00;101697.78;5031165;28;20104;-87
2022/09/25 01:14:23;;;;;;;5.38;2.50;;;;;;;8.50;100.00;101688.66;4997612;28;20085;-87
2022/09/25 01:16:59;;;;;;;7.85;2.15;;;;;;;8.50;100.00;101695.88;5014641;28;20074;-87
2022/09/25 01:19:57;;;;;;;2.72;2.17;;;;;;;8.51;100.00;101694.72;5014302;28;20046;-87
2022/09/25 01:22:54;;;;;;;3.15;2.10;;;;;;;8.52;100.00;101690.91;5011999;28;20540;-88
2022/09/25 01:25:49;;;;;;;3.42;2.22;;;;;;;8.48;100.00;101687.56;5012514;28;20077;-87
2022/09/25 01:28:18;;;;;;;2.92;1.95;;;;;;;8.44;100.00;101692.94;5031335;28;20046;-87
2022/09/25 01:30:50;;;;;;;2.15;1.95;;;;;;;8.41;100.00;101691.06;5013542;28;20050;-88
2022/09/25 01:33:22;;;;;;;;;;;;;;;8.40;100.00;101692.22;5031558;28;20038;-87
2022/09/25 01:36:13;;;;;;;3.33;1.85;;;;;;;8.36;100.00;101696.84;5014044;28;20018;-88
2022/09/25 01:38:52;;;;;;;9.57;2.30;;;;;;;8.34;100.00;101691.94;5013850;28;20102;-88
2022/09/25 01:41:25;;;;;;;3.75;2.05;;;;;;;8.30;100.00;101687.81;5015480;28;20791;-87
2022/09/25 01:44:12;;;;;;;2.20;2.00;;;;;;;8.24;100.00;101687.50;5033692;28;20073;-88
2022/09/25 01:46:52;;;;;;;4.50;1.90;;;;;;;8.21;100.00;101682.25;5015636;28;20056;-89
2022/09/25 01:49:28;;;;;;;2.10;1.90;;;;;;;8.20;100.00;101691.34;5015455;28;20082;-88
2022/09/25 01:51:57;;;;;;;1.85;1.75;;;;;;;8.17;100.00;101684.94;5014047;28;20872;-89
2022/09/25 01:54:36;;;;;;;1.90;1.80;;;;;;;8.15;100.00;101686.50;5013803;28;20042;-88
2022/09/25 01:57:14;;;;;;;6.22;2.00;;;;;;;8.14;100.00;101687.63;5013839;28;20148;-87
2022/09/25 01:59:52;;;;;;;2.00;1.83;;;;;;;8.09;99.73;101683.53;4997184;28;20106;-87
2022/09/25 02:02:24;;;;;;;2.08;1.88;;;;;;;8.03;99.66;101685.13;5013867;28;20137;-88
2022/09/25 02:05:03;;;;;;;3.80;1.88;;;;;;;8.04;99.84;101687.38;5013601;28;20054;-86
2022/09/25 02:07:36;;;;;;;4.32;2.20;;;;;;;8.01;100.00;101682.88;4981620;28;20534;-87
2022/09/25 02:10:10;;;;;;;3.47;1.88;;;;;;;7.98;99.69;101688.25;5010129;28;20054;-87
2022/09/25 02:12:52;;;;;;;2.80;2.22;;;;;;;7.97;99.56;101679.53;4978432;28;20117;-87
2022/09/25 02:15:32;;;;;;;4.00;1.73;;;;;;;7.88;99.32;101679.25;4997045;28;20050;-87
2022/09/25 02:20:52;;;;;;;1.77;1.67;;;;;;;7.80;99.05;101688.44;5014335;28;20122;-86
2022/09/25 02:23:27;;;;;;;2.00;1.25;;;;;;;7.83;99.31;101694.84;5014527;28;20065;-87
2022/09/25 02:26:03;;;;;;;1.55;1.45;;;;;;;7.79;99.10;101692.25;5013615;28;20562;-87
2022/09/25 02:28:30;;;;;;;4.10;1.60;;;;;;;7.77;99.25;101694.53;5014594;28;20074;-87
2022/09/25 02:30:58;;;;;;;2.75;1.30;;;;;;;7.76;99.42;101692.28;4996882;28;20491;-87
2022/09/25 02:33:25;;;;;;;3.08;1.67;;;;;;;7.73;98.91;101690.41;4996594;28;20053;-87
2022/09/25 02:35:52;;;;;;;2.30;1.27;;;;;;;7.71;98.71;101696.09;5014282;28;20047;-87
2022/09/25 02:38:19;;;;;;;1.77;1.40;;;;;;;7.71;99.14;101696.09;4996892;28;20184;-88
2022/09/25 02:40:52;;;;;;;1.58;1.50;;;;;;;7.69;99.40;101693.84;4996781;28;20093;-87
2022/09/25 02:43:43;;;;;;;1.70;1.60;;;;;;;7.68;99.32;101697.66;4997212;28;20533;-88
2022/09/25 02:46:39;;;;;;;1.92;1.50;;;;;;;7.65;98.88;101687.84;5013321;28;20081;-87
2022/09/25 02:49:37;;;;;;;1.35;1.27;;;;;;;7.61;99.17;101681.81;4991344;28;20058;-87
2022/09/25 02:52:09;;;;;;;1.85;1.08;;;;;;;7.59;99.13;101686.78;4979351;28;20130;-87
2022/09/25 02:54:45;;;;;;;2.20;1.20;;;;;;;7.56;98.70;101682.28;5014537;28;20042;-87
2022/09/25 02:57:42;;;;;;;2.03;1.30;;;;;;;7.50;98.93;101681.22;4996614;28;20050;-87
2022/09/25 03:00:09;;;;;;;1.65;1.27;;;;;;;7.50;99.08;101681.22;5013199;28;20482;-87
2022/09/25 03:02:38;;;;;;;1.92;1.23;;;;;;;7.50;99.15;101680.47;5014066;28;20050;-87
2022/09/25 03:05:06;;;;;;;1.83;1.45;;;;;;;7.45;98.52;101680.88;5012892;28;20522;-87
2022/09/25 03:08:36;;;;;;;2.90;1.25;;;;;;;7.43;99.06;101673.34;5031091;28;20046;-87
2022/09/25 03:10:20;;;;;;;1.50;1.30;;;;;;;7.38;98.85;101683.59;5031979;28;20058;-86
2022/09/25 03:12:46;;;;;;;2.15;1.30;;;;;;;7.37;99.14;101680.22;5035186;28;20050;-87
2022/09/25 03:15:13;;;;;;;1.60;1.10;;;;;;;7.33;98.49;101680.25;5017820;28;20069;-86
2022/09/25 03:17:39;;;;;;;1.20;1.10;;;;;;;7.30;98.86;101688.22;5016158;28;20101;-88
2022/09/25 03:20:09;;;;;;;2.30;1.13;;;;;;;7.30;98.78;101682.91;5032621;28;20553;-87
2022/09/25 03:22:36;;;;;;;2.70;1.00;;;;;;;7.26;97.74;101679.56;5016193;28;20077;-88
2022/09/25 03:25:04;;;;;;;2.30;1.23;;;;;;;7.19;97.70;101677.00;5033474;28;20045;-90
2022/09/25 03:27:30;;;;;;;1.10;1.00;;;;;;;7.17;98.40;101681.94;5033924;28;20100;-88
2022/09/25 03:29:57;;;;;;;1.08;1.08;;;;;;;7.17;98.65;101674.75;5034258;28;20045;-88
2022/09/25 03:32:23;;;;;;;1.67;1.15;;;;;;;7.13;98.53;101679.31;5016227;28;20093;-87
2022/09/25 03:34:50;;;;;;;1.83;1.40;;;;;;;7.16;98.58;101685.72;5033889;28;20038;-87
2022/09/25 03:37:16;;;;;;;2.25;1.70;;;;;;;7.14;98.45;101680.06;5034728;28;20125;-87
2022/09/25 03:39:43;;;;;;;0.90;0.90;;;;;;;7.12;98.57;101675.16;5035023;28;20141;-87
2022/09/25 03:42:09;;;;;;;1.20;1.10;;;;;;;7.10;98.55;101676.69;5019587;28;20510;-87
2022/09/25 03:44:36;;;;;;;1.95;0.98;;;;;;;7.06;98.87;101675.97;5044576;28;20105;-87
2022/09/25 03:47:02;;;;;;;1.10;1.10;;;;;;;7.07;98.85;101677.47;5038907;28;20658;-87
2022/09/25 03:49:29;;;;;;;2.45;1.13;;;;;;;7.03;98.31;101678.25;5035021;28;20675;-88
2022/09/25 03:51:55;;;;;;;1.50;1.40;;;;;;;7.03;98.65;101674.84;5017597;28;20054;-88
2022/09/25 03:54:22;;;;;;;4.68;1.30;;;;;;;6.98;98.28;101670.72;5016436;28;20096;-89
2022/09/25 03:56:48;;;;;;;1.65;1.13;;;;;;;6.98;98.87;101660.16;5015940;28;20510;-89
2022/09/25 03:59:15;;;;;;;1.42;1.08;;;;;;;7.01;98.95;101666.56;5016518;28;20109;-89
2022/09/25 04:01:42;;;;;;;1.00;0.90;;;;;;;7.00;99.38;101673.75;5016339;28;20537;-88
2022/09/25 04:04:08;;;;;;;1.10;1.10;;;;;;;7.00;99.50;101665.03;5016115;28;20077;-89
2022/09/25 04:06:35;;;;;;;2.03;1.08;;;;;;;6.98;99.02;101670.72;5007747;28;20054;-89
2022/09/25 04:09:02;;;;;;;5.38;1.70;;;;;;;6.93;99.20;101668.50;4996256;28;20050;-89
2022/09/25 04:11:28;;;;;;;1.52;1.17;;;;;;;6.93;99.20;101663.22;4995994;28;20050;-89
2022/09/25 04:13:56;;;;;;;2.13;1.20;;;;;;;6.91;98.86;101672.69;5015140;28;20129;-90
2022/09/25 04:16:22;;;;;;;1.10;1.00;;;;;;;6.89;99.72;101673.06;5014484;28;20051;-89
2022/09/25 04:18:50;;;;;;;1.13;1.02;;;;;;;6.89;99.33;101670.44;4981308;28;20574;-90
2022/09/25 04:21:16;;;;;;;1.02;0.77;;;;;;;6.84;99.65;101673.50;5013581;28;20533;-90
2022/09/25 04:24:46;;;;;;;1.05;1.05;;;;;;;6.85;99.51;101668.94;4997273;28;20074;-89
2022/09/25 04:26:30;;;;;;;3.05;1.08;;;;;;;6.86;99.42;101668.56;5013284;28;20526;-89
2022/09/25 04:29:00;;;;;;;1.10;1.00;;;;;;;6.85;99.75;101675.00;4998013;28;20082;-89
2022/09/25 04:31:27;;;;;;;1.55;1.10;;;;;;;6.86;99.92;101678.41;4996956;28;20082;-89
2022/09/25 04:33:55;;;;;;;1.05;1.05;;;;;;;6.85;99.88;101672.34;5015236;28;20145;-89
2022/09/25 04:36:22;;;;;;;1.25;1.25;;;;;;;6.85;100.00;101661.75;5013391;28;20074;-90
2022/09/25 04:38:48;;;;;;;1.33;1.13;;;;;;;6.83;99.72;101668.59;5014337;28;20519;-90
2022/09/25 04:41:18;;;;;;;1.33;1.23;;;;;;;6.80;99.66;101666.75;4998709;28;20051;-89
2022/09/25 04:43:45;;;;;;;1.30;1.13;;;;;;;6.75;99.91;101673.22;4998404;28;20094;-88
2022/09/25 04:46:12;;;;;;;1.67;1.30;;;;;;;6.76;100.00;101666.03;4997403;28;20084;-89
2022/09/25 04:48:47;;;;;;;1.10;1.00;;;;;;;6.73;99.80;101664.16;4998671;28;20050;-89
2022/09/25 04:51:13;;;;;;;1.92;1.00;;;;;;;6.69;99.48;101662.28;4997849;28;20059;-89
2022/09/25 04:53:40;;;;;;;1.48;1.20;;;;;;;6.67;99.50;101658.53;5013246;28;20086;-89
2022/09/25 04:56:07;;;;;;;1.42;1.33;;;;;;;6.72;100.00;101665.28;4998814;28;20529;-90
2022/09/25 04:58:48;;;;;;;1.85;1.10;;;;;;;6.71;99.83;101658.50;4997437;28;20054;-89
2022/09/25 05:01:17;;;;;;;2.03;1.10;;;;;;;6.64;99.80;101659.31;4995319;28;20074;-88
2022/09/25 05:03:52;;;;;;;1.83;1.20;;;;;;;6.61;100.00;101660.81;5013694;28;20545;-88
2022/09/25 05:06:19;;;;;;;4.47;1.23;;;;;;;6.58;99.73;101656.31;4996216;28;20064;-89
2022/09/25 05:08:49;;;;;;;1.38;1.20;;;;;;;6.59;99.61;101659.72;5012386;28;20108;-88
2022/09/25 05:11:15;;;;;;;2.05;1.45;;;;;;;6.53;99.75;101658.63;5014027;28;20097;-88
2022/09/25 05:13:45;;;;;;;1.20;1.20;;;;;;;6.53;99.36;101655.97;4996919;28;20057;-89
2022/09/25 05:16:12;;;;;;;4.82;1.33;;;;;;;6.55;99.68;101658.97;4980458;28;20081;-88
2022/09/25 05:18:38;;;;;;;1.27;1.17;;;;;;;6.57;99.83;101667.28;4997188;28;20097;-88
2022/09/25 05:21:05;;;;;;;1.60;1.33;;;;;;;6.56;99.45;101668.41;5012559;28;20051;-88
2022/09/25 05:23:31;;;;;;;2.03;1.10;;;;;;;6.53;99.63;101661.25;4994342;28;20965;-88
2022/09/25 05:26:00;;;;;;;2.15;1.17;;;;;;;6.54;99.84;101665.41;4977883;28;20086;-89
2022/09/25 05:28:28;;;;;;;1.17;1.10;;;;;;;6.54;99.79;101665.41;4977704;28;20137;-88
2022/09/25 05:31:01;;;;;;;1.40;1.30;;;;;;;6.54;99.98;101660.13;4994020;28;20094;-89
2022/09/25 05:33:32;;;;;;;1.35;1.25;;;;;;;6.49;99.79;101661.28;4991380;28;20039;-89
2022/09/25 05:36:02;;;;;;;1.67;1.20;;;;;;;6.51;99.84;101655.59;5008138;28;20523;-88
2022/09/25 05:38:31;;;;;;;1.95;1.30;;;;;;;6.50;99.51;101662.03;4992382;28;20126;-89
2022/09/25 05:41:03;;;;;;;2.38;1.50;;;;;;;6.47;99.44;101663.56;5007554;28;20591;-89
2022/09/25 05:43:31;;;;;;;2.63;1.33;;;;;;;6.48;99.61;101666.97;5007273;28;20774;-89
2022/09/25 05:45:58;;;;;;;1.75;1.38;;;;;;;6.51;99.96;101660.91;4991519;28;20055;-89
2022/09/25 05:48:25;;;;;;;1.55;1.25;;;;;;;6.52;99.77;101665.78;4995100;28;20050;-89
2022/09/25 05:50:56;;;;;;;2.28;1.55;;;;;;;6.55;99.95;101661.63;4979433;28;20175;-89
2022/09/25 05:53:24;;;;;;;1.42;1.25;;;;;;;6.55;99.74;101666.91;4995004;28;20058;-88
2022/09/25 05:55:57;;;;;;;3.80;1.33;;;;;;;6.56;100.00;101663.88;4994361;28;20137;-89
2022/09/25 05:58:25;;;;;;;3.25;1.70;;;;;;;6.60;100.00;101663.84;4993368;28;20487;-89
2022/09/25 06:00:52;;;;;;;3.20;1.58;;;;;;;6.63;100.00;101669.13;4993236;28;20050;-88
2022/09/25 06:03:19;;;;;;;1.33;1.30;;;;;;;6.69;99.99;101672.88;4977492;28;20511;-88
2022/09/25 06:05:46;;;;;;;1.23;1.23;;;;;;;6.76;100.00;101671.31;4979474;28;20046;-87
2022/09/25 06:08:13;;;;;;;1.60;1.30;;;;;;;6.82;100.00;101661.78;5016402;28;20125;-90
2022/09/25 06:10:40;;;;;;;1.30;1.30;;;;;;;6.85;100.00;101658.38;5015670;28;20086;-82
2022/09/25 06:13:07;;;;;;;1.65;1.55;;;;;;;6.91;100.00;101654.16;4997254;28;20055;-79
2022/09/25 06:15:36;;;;;;;3.70;1.80;;;;;;;6.99;100.00;101663.53;5015032;28;20557;-78
2022/09/25 06:18:04;;;;;;;2.65;1.98;;;;;;;7.06;100.00;101663.47;5015850;28;20058;-88
2022/09/25 06:20:31;;;;;;;4.07;1.83;;;;;;;7.10;100.00;101663.47;5014580;28;20574;-88
2022/09/25 06:22:59;;;;;;;4.57;2.35;;;;;;;7.16;100.00;101670.59;5031120;28;20061;-86
2022/09/25 06:25:31;;;;;;;3.72;2.63;;;;;;;7.24;100.00;101669.34;5015494;28;20125;-85
2022/09/25 06:27:59;;;;;;;6.25;2.70;;;;;;;7.31;100.00;101674.59;5016899;28;20125;-93
2022/09/25 06:30:34;;;;;;;8.65;2.80;;;;;;;7.40;100.00;101671.47;5016347;28;20835;-89
2022/09/25 06:33:09;;;;;;;9.57;2.70;;;;;;;7.94;100.00;101674.28;5031548;28;20482;-88
2022/09/25 06:35:43;;;;;;;5.28;2.92;;;;;;;9.18;98.65;101672.41;5015283;28;20058;-84
2022/09/25 06:38:11;;;;;;;8.02;3.20;;;;;;;9.92;93.43;101672.13;4997964;28;20042;-89
2022/09/25 06:40:39;;;;;;;8.50;3.03;;;;;;;10.18;91.07;101670.44;5013774;28;20050;-90
2022/09/25 06:43:12;;;;;;;6.72;2.92;;;;;;;10.03;90.71;101677.94;5030416;28;20090;-89
2022/09/25 06:45:40;;;;;;;4.05;2.53;;;;;;;9.73;92.30;101675.53;5014782;28;20443;-87
2022/09/25 06:48:09;;;;;;;4.13;2.13;;;;;;;9.50;93.91;101674.47;4998187;28;20053;-88
2022/09/25 06:50:58;;;;;;;4.15;2.47;;;;;;;9.45;94.92;101672.28;4997274;28;20046;-88
2022/09/25 06:53:25;;;;;;;4.68;1.98;;;;;;;9.45;95.35;101674.94;5015571;28;20122;-88
2022/09/25 06:55:53;;;;;;;2.10;1.92;;;;;;;9.48;96.52;101679.44;5030300;28;20049;-90
2022/09/25 06:58:22;;;;;;;1.98;1.80;;;;;;;9.51;97.42;101673.31;4998233;28;20546;-90
2022/09/25 07:00:50;;;;;;;6.13;1.85;;;;;;;9.59;98.28;101677.34;5031639;28;20841;-86
2022/09/25 07:06:04;;;;;;;1.42;1.33;;;;;;;9.83;99.67;101683.31;4996802;28;20113;-87
2022/09/25 07:08:31;;;;;;;1.42;1.10;;;;;;;9.98;100.00;101687.19;5014585;28;20089;-86
2022/09/25 07:10:58;;;;;;;6.00;1.55;;;;;;;10.13;100.00;101692.19;5029400;28;20557;-88
2022/09/25 07:13:27;;;;;;;4.53;1.20;;;;;;;10.27;100.00;101689.25;5014836;28;20050;-85
2022/09/25 07:15:56;;;;;;;3.38;1.20;;;;;;;10.44;100.00;101695.34;4996586;28;20076;-85
2022/09/25 07:18:24;;;;;;;7.25;1.42;;;;;;;10.57;100.00;101704.19;5014449;28;20046;-86
2022/09/25 07:20:52;;;;;;;5.75;1.73;;;;;;;10.69;100.00;101696.28;5029860;28;20047;-87
2022/09/25 07:23:21;;;;;;;2.90;1.30;;;;;;;10.82;100.00;101696.34;5014758;28;20082;-88
2022/09/25 07:25:48;;;;;;;2.88;1.45;;;;;;;10.96;100.00;101700.59;5014063;28;20046;-91
2022/09/25 07:28:17;;;;;;;2.28;1.40;;;;;;;11.10;100.00;101697.56;4997506;28;20077;-88
2022/09/25 07:30:44;;;;;;;2.53;1.27;;;;;;;11.21;100.00;101695.34;4996329;28;20549;-87
2022/09/25 07:33:11;;;;;;;6.65;1.30;;;;;;;11.35;100.00;101705.66;5014887;28;20039;-88
2022/09/25 07:35:38;;;;;;;5.15;1.30;;;;;;;11.49;100.00;101696.56;5014112;28;20050;-88
2022/09/25 07:38:05;;;;;;;2.58;1.27;;;;;;;11.58;99.74;101699.34;5014700;28;20125;-89
2022/09/25 07:40:32;;;;;;;4.78;1.63;;;;;;;11.68;98.87;101697.53;4996509;28;20114;-88
2022/09/25 07:43:02;;;;;;;2.72;1.52;;;;;;;11.79;98.38;101694.63;5014453;28;20043;-87
2022/09/25 07:45:29;;;;;;;3.47;1.50;;;;;;;11.89;97.77;101696.97;4996215;28;20078;-87
2022/09/25 07:48:00;;;;;;;4.93;1.63;;;;;;;11.99;96.85;101689.84;4996176;28;20571;-86
2022/09/25 07:50:31;;;;;;;5.05;1.52;;;;;;;12.08;95.97;101692.63;5014775;28;20508;-86
2022/09/25 07:52:58;;;;;;;3.07;1.87;;;;;;;12.18;95.71;101688.88;5014060;28;20141;-87
2022/09/25 07:55:26;;;;;;;5.22;1.55;;;;;;;12.30;95.03;101688.16;5014485;28;20125;-88
2022/09/25 07:57:56;;;;;;;2.70;1.48;;;;;;;12.40;94.91;101688.97;5030065;28;20074;-85
2022/09/25 08:00:22;;;;;;;4.90;1.45;;;;;;;12.49;93.79;101686.41;4996816;28;20085;-83
2022/09/25 08:02:56;;;;;;;3.10;1.27;;;;;;;12.61;93.30;101691.00;5012495;28;20101;-82
2022/09/25 08:05:24;;;;;;;3.38;1.05;;;;;;;12.75;93.84;101695.16;5013889;28;20045;-82
2022/09/25 08:07:51;;;;;;;2.22;1.10;;;;;;;12.87;92.71;101697.03;5014357;28;20065;-93
2022/09/25 08:10:18;;;;;;;3.45;1.27;;;;;;;13.02;91.54;101694.63;5013614;28;20505;-82
2022/09/25 08:12:45;;;;;;;7.05;1.17;;;;;;;13.13;90.75;101692.34;5013834;28;20141;-82
2022/09/25 08:15:13;;;;;;;3.05;1.20;;;;;;;13.20;88.94;101692.13;5013928;28;20046;-80
2022/09/25 08:17:41;;;;;;;5.60;1.27;;;;;;;13.29;88.96;101689.53;5029068;28;20042;-86
2022/09/25 08:20:09;;;;;;;5.40;1.10;;;;;;;13.43;88.86;101695.56;5014450;28;20545;-90
2022/09/25 08:22:35;;;;;;;3.05;1.20;;;;;;;13.52;87.30;101693.69;5032800;28;20070;-93
2022/09/25 08:25:02;;;;;;;2.95;1.00;;;;;;;13.64;87.85;101695.53;5049064;28;20045;-88
2022/09/25 08:27:30;;;;;;;4.10;1.15;;;;;;;13.74;84.72;101692.91;5031814;28;20116;-91
2022/09/25 08:29:57;;;;;;;1.40;0.93;;;;;;;13.86;83.97;101695.53;5033489;28;20061;-88
2022/09/25 08:32:24;;;;;;;2.80;1.23;;;;;;;13.90;83.72;101688.09;5049017;28;20496;-88
2022/09/25 08:34:50;;;;;;;2.58;0.93;;;;;;;14.02;84.87;101689.19;5032758;28;20050;-92
2022/09/25 08:37:19;;;;;;;3.15;1.25;;;;;;;14.12;84.34;101689.97;5016315;28;20108;-90
2022/09/25 08:39:46;;;;;;;2.78;1.00;;;;;;;14.20;82.20;101686.59;5017002;28;20061;-90
2022/09/25 08:42:18;;;;;;;9.07;1.15;;;;;;;14.29;82.17;101688.56;5032107;28;20057;-90
2022/09/25 08:49:00;;;;;;;3.15;1.10;;;;;;;14.43;81.57;101685.34;5032567;28;20128;-91
2022/09/25 08:50:39;;;;;;;1.25;0.93;;;;;;;14.68;80.70;101687.78;5035425;28;20051;-91
2022/09/25 08:53:11;;;;;;;3.97;1.23;;;;;;;14.78;80.27;101693.16;5016987;28;20141;-89
2022/09/25 08:58:29;;;;;;;1.58;1.20;;;;;;;15.07;77.57;101690.03;5032549;28;20050;-91
2022/09/25 09:01:18;;;;;;;4.28;1.00;;;;;;;15.25;76.52;101681.97;5033528;28;20050;-92
2022/09/25 09:03:55;;;;;;;3.40;0.90;;;;;;;15.51;76.17;101685.06;5033699;28;20081;-89
2022/09/25 09:06:24;;;;;;;2.55;0.90;;;;;;;15.49;75.49;101679.41;5038754;28;20494;-81
2022/09/25 09:09:11;;;;;;;1.75;0.80;;;;;;;15.58;76.20;101682.84;5053011;28;20561;-84
2022/09/25 09:11:51;;;;;;;6.28;1.00;;;;;;;15.43;73.59;101681.22;5053213;28;20133;-89
2022/09/25 09:14:20;;;;;;;3.35;1.08;;;;;;;15.41;73.30;101678.22;5053623;28;20068;-87
2022/09/25 09:16:58;;;;;;;4.03;0.82;;;;;;;15.25;74.28;101684.66;5053006;28;20844;-87
2022/09/25 09:19:25;;;;;;;2.85;0.88;;;;;;;15.08;74.08;101681.53;5052798;28;20128;-87
2022/09/25 09:22:10;;;;;;;3.88;0.77;;;;;;;15.03;75.38;101684.81;5035257;28;20045;-80
2022/09/25 09:24:54;;;;;;;6.93;0.77;;;;;;;14.84;75.13;101686.75;5037396;28;20045;-82
2022/09/25 09:27:30;;;;;;;3.80;0.80;;;;;;;14.75;74.02;101696.72;5056024;28;20045;-82
2022/09/25 09:30:09;;;;;;;3.20;1.05;;;;;;;14.70;75.70;101698.06;5056017;28;20046;-86
2022/09/25 09:33:04;;;;;;;5.28;2.45;;;;;;;14.65;75.11;101704.00;5054762;28;20049;-88
2022/09/25 09:36:11;;;;;;;5.22;0.77;;;;;;;14.61;76.66;101696.09;5056163;28;20056;-85
2022/09/25 09:38:54;;;;;;;9.18;5.32;;;;;;;14.59;76.81;101700.41;5053555;28;20129;-84
2022/09/25 09:41:36;;;;;;;2.42;1.05;;;;;;;14.82;76.41;101699.09;5056514;28;20152;-89
2022/09/25 09:44:12;;;;;;;;;;;;;;;15.16;76.73;101693.47;5037513;28;20046;-85
2022/09/25 09:47:03;;;;;;;3.63;0.90;;;;;;;15.27;75.73;101698.34;5055414;28;19933;-83
2022/09/25 09:49:45;;;;;;;4.35;1.10;;;;;;;15.43;76.13;101690.00;5055517;28;20045;-83
2022/09/25 09:52:16;;;;;;;;;;;;;;;15.34;76.49;101688.06;5055939;28;20124;-82
2022/09/25 09:55:14;;;;;;;3.53;0.85;;;;;;;15.22;76.20;101688.22;5055339;28;20463;-82
2022/09/25 09:57:52;;;;;;;3.88;0.85;;;;;;;15.29;75.13;101682.56;5055084;28;20042;-81
2022/09/25 10:00:21;;;;;;;2.72;0.88;;;;;;;15.50;74.22;101680.91;5055494;28;20136;-82
2022/09/25 10:03:02;;;;;;;2.05;0.98;;;;;;;15.66;74.36;101683.25;5056257;28;20136;-89
2022/09/25 10:05:35;;;;;;;4.45;1.10;;;;;;;15.84;73.34;101677.84;5037368;28;20081;-83
2022/09/25 10:08:02;;;;;;;8.23;1.08;;;;;;;15.87;71.13;101673.50;5022566;28;20089;-84
2022/09/25 10:10:40;;;;;;;5.82;1.17;;;;;;;15.89;70.94;101671.13;5055103;28;20537;-87
2022/09/25 10:13:17;;;;;;;3.28;0.80;;;;;;;15.97;68.79;101672.28;5055691;28;20049;-82
2022/09/25 10:15:50;;;;;;;2.65;0.70;;;;;;;16.08;68.57;101667.16;5055058;28;20077;-84
2022/09/25 10:18:20;;;;;;;5.32;1.38;;;;;;;16.30;65.74;101666.91;5048873;28;20050;-82
2022/09/25 10:20:53;;;;;;;5.45;1.05;;;;;;;16.58;65.64;101668.22;4996936;28;20526;-86
2022/09/25 10:23:58;;;;;;;1.20;0.60;;;;;;;16.56;66.92;101669.88;4997880;28;20049;-84
2022/09/25 10:26:26;;;;;;;0.80;0.60;;;;;;;16.23;65.12;101662.59;4997397;28;20078;-85
2022/09/25 10:28:57;;;;;;;2.58;0.90;;;;;;;15.93;66.43;101671.69;4997363;28;20137;-85
2022/09/25 10:31:32;;;;;;;2.65;0.82;;;;;;;15.71;68.07;101669.22;4981171;28;20078;-82
2022/09/25 10:34:15;;;;;;;3.38;1.27;;;;;;;15.57;67.40;101659.91;4996130;28;20146;-82
2022/09/25 10:36:47;;;;;;;4.78;1.17;;;;;;;15.35;67.90;101662.00;5014929;28;20046;-81
2022/09/25 10:39:25;;;;;;;;;;;;;;;15.26;69.33;101662.75;5015815;28;20481;-85
2022/09/25 10:42:39;;;;;;;3.65;1.23;;;;;;;15.18;68.77;101663.53;5015330;28;19926;-85
2022/09/25 10:45:33;;;;;;;3.97;1.35;;;;;;;15.46;68.65;101656.91;5016480;28;20570;-86
2022/09/25 10:51:08;;;;;;;1.48;0.70;;;;;;;15.82;66.97;101666.06;5018002;28;20084;-86
2022/09/25 10:53:34;;;;;;;2.55;0.90;;;;;;;15.87;64.76;101654.72;5015965;28;20129;-90
2022/09/25 10:56:05;;;;;;;4.35;1.10;;;;;;;15.93;65.47;101658.28;4999284;28;20038;-86
2022/09/25 10:58:45;;;;;;;2.00;0.70;;;;;;;16.03;65.77;101640.91;5015485;28;20038;-91
2022/09/25 11:01:12;;;;;;;5.97;1.00;;;;;;;16.12;66.51;101648.91;5016277;28;20105;-89
2022/09/25 11:03:53;;;;;;;7.03;0.80;;;;;;;16.20;63.65;101644.72;5013011;28;20046;-83
2022/09/25 11:06:29;;;;;;;0.60;0.60;;;;;;;16.21;63.45;101642.75;5015258;28;20066;-85
2022/09/25 11:09:18;;;;;;;1.92;1.08;;;;;;;15.99;61.99;101643.75;5014909;28;20077;-87
2022/09/25 11:11:48;;;;;;;8.63;4.95;;;;;;;15.89;60.65;101642.34;5017352;28;20073;-86
2022/09/25 11:14:21;;;;;;;6.88;4.68;;;;;;;16.06;61.72;101629.25;5032974;28;20132;-87
2022/09/25 11:16:54;;;;;;;1.10;0.95;;;;;;;16.18;60.34;101625.63;5048521;28;20042;-88
2022/09/25 11:19:32;;;;;;;1.70;1.02;;;;;;;16.27;60.84;101627.50;5034614;28;20046;-87
2022/09/25 11:22:08;;;;;;;1.20;0.65;;;;;;;16.31;59.70;101638.84;5034498;28;20046;-87
2022/09/25 11:24:52;;;;;;;2.95;0.80;;;;;;;16.32;61.33;101630.31;5032872;28;20100;-89
2022/09/25 11:27:45;;;;;;;4.65;0.70;;;;;;;16.40;60.70;101633.38;5021620;28;20054;-87
2022/09/25 11:30:16;;;;;;;2.10;0.68;;;;;;;16.50;59.66;101626.75;5016179;28;20057;-86
2022/09/25 11:33:01;;;;;;;4.13;0.70;;;;;;;16.60;61.04;101632.81;5033261;28;20056;-87
2022/09/25 11:35:52;;;;;;;2.47;0.95;;;;;;;16.57;59.90;101623.72;5032754;28;20050;-87
2022/09/25 11:41:47;;;;;;;1.40;0.70;;;;;;;16.18;59.24;101617.56;5015635;28;20545;-86
2022/09/25 11:44:41;;;;;;;2.78;0.80;;;;;;;16.21;60.17;101619.34;5033706;28;20073;-87
2022/09/25 11:47:19;;;;;;;4.18;0.75;;;;;;;16.34;59.64;101613.75;5015862;28;20053;-86
2022/09/25 11:49:52;;;;;;;5.82;0.90;;;;;;;16.42;59.36;101604.09;5032033;28;20054;-86
2022/09/25 11:52:42;;;;;;;2.30;0.68;;;;;;;16.53;58.17;101609.72;5015479;28;20049;-87
2022/09/25 11:55:45;;;;;;;2.95;0.77;;;;;;;16.49;57.15;101605.69;5032719;28;20050;-87
2022/09/25 11:58:18;;;;;;;0.60;0.60;;;;;;;16.39;57.44;101596.25;5034018;28;20462;-87
2022/09/25 12:00:53;;;;;;;2.35;0.50;;;;;;;16.33;56.85;101596.88;5032948;28;20117;-87
2022/09/25 12:03:34;;;;;;;0.68;0.50;;;;;;;16.46;57.92;101588.56;5034041;28;20046;-87
2022/09/25 12:06:24;;;;;;;3.55;0.65;;;;;;;16.42;57.39;101596.03;5015396;28;20104;-87
2022/09/25 12:09:30;;;;;;;3.42;0.90;;;;;;;16.25;58.72;101592.31;5033935;28;20097;-87
2022/09/25 12:12:13;;;;;;;4.18;0.90;;;;;;;16.09;57.09;101595.38;5015650;28;20050;-86
2022/09/25 12:15:08;;;;;;;0.77;0.50;;;;;;;15.96;57.06;101585.63;5032888;28;20053;-86
2022/09/25 12:17:40;;;;;;;0.75;0.70;;;;;;;16.15;58.32;101583.56;5033609;28;20518;-87